Terminal Aerodrome Forecast
Issued by NWS

Home | Current Version | Previous Version | Graphics & Text | Print | Product List | Glossary On
Versions: 1 2 3 4 5 6 7 8 9 10 11 12 13 14 15 16 17 18
000
FTUS43 KGRB 211720
TAFRHI
TAF
KRHI 211720Z 2118/2218 19008KT P6SM BKN050
     FM220100 15006KT P6SM SCT060 BKN250
     FM220400 14007KT P6SM VCTS BKN080CB WS016/19040KT
      TEMPO 2205/2209 2SM TSRA BR BKN030CB
     FM220900 18006KT 3SM SHRA BR BKN025 WS015/25045KT
     FM221100 21007KT 4SM BR BKN006 WS015/27035KT
     FM221400 25009G14KT P6SM BKN011
     FM221600 27010G18KT P6SM BKN022=

USA.gov is the U.S. government's official web portal to all federal, state and local government web resources and services.